< < Back
Terminal Aerodrome Forecast


Current Version              Previous Versions:   1  2  3  4  5  6  7  8  9  

Terminal Aerodrome Forecast

172
FTUS42 KILM 280605 CCA
TAFFLO
TAF COR
KFLO 280605Z 2806/2906 05011KT P6SM SCT030 BKN050
     FM280700 05002KT 5SM BR SCT004 BKN010
     FM281400 05011KT P6SM SCT020 SCT050
     FM281800 08010KT P6SM VCTS SCT020CB BKN050
     FM290200 VRB03KT P6SM FEW050 SCT250=



Latest METAR

416
SAUS70 KWBC 290300 RRK
MTRFLO
METAR KFLO 290253Z AUTO 02003KT 10SM CLR 21/17 A3017 RMK AO2 SLP212
T02110172 51018


USA.gov is the U.S. government's official web portal to all federal, state and local government web resources and services.